createdAt,value
2022-08-19T00:01:29.208Z,11.68
2022-08-19T00:03:57.007Z,10.85
2022-08-19T00:06:23.316Z,14.18
2022-08-19T00:08:49.636Z,14.25
2022-08-19T00:11:18.761Z,13.30
2022-08-19T00:13:54.065Z,12.77
2022-08-19T00:16:26.120Z,10.85
2022-08-19T00:18:53.783Z,11.20
2022-08-19T00:21:20.084Z,11.48
2022-08-19T00:23:46.406Z,11.35
2022-08-19T00:26:12.740Z,11.95
2022-08-19T00:28:39.076Z,11.77
2022-08-19T00:31:08.401Z,11.98
2022-08-19T00:33:35.227Z,9.90
2022-08-19T00:36:01.648Z,17.58
2022-08-19T00:38:36.361Z,11.05
2022-08-19T00:41:04.500Z,12.40
2022-08-19T00:43:30.812Z,13.38
2022-08-19T00:45:57.100Z,10.05
2022-08-19T00:48:24.752Z,12.20
2022-08-19T00:50:52.501Z,12.63
2022-08-19T00:53:21.028Z,13.65
2022-08-19T00:55:48.192Z,10.25
2022-08-19T00:58:18.865Z,13.90
2022-08-19T01:00:45.556Z,14.07
2022-08-19T01:03:13.724Z,13.88
2022-08-19T01:05:42.813Z,16.90
2022-08-19T01:08:09.193Z,12.75
2022-08-19T01:10:38.140Z,15.45
2022-08-19T01:15:31.985Z,16.50
2022-08-19T01:17:59.213Z,20.52
2022-08-19T01:20:25.536Z,19.35
2022-08-19T01:22:54.612Z,17.95
2022-08-19T01:25:22.337Z,16.45
2022-08-19T01:27:53.518Z,19.38
2022-08-19T01:30:21.793Z,19.17
2022-08-19T01:32:48.227Z,21.90
2022-08-19T01:35:14.826Z,18.33
2022-08-19T01:37:45.109Z,18.45
2022-08-19T01:40:13.078Z,18.70
2022-08-19T01:42:39.595Z,20.30
2022-08-19T01:45:06.508Z,18.38
2022-08-19T01:47:32.813Z,20.73
2022-08-19T01:49:59.325Z,19.48
2022-08-19T01:52:25.646Z,19.92
2022-08-19T01:54:51.959Z,23.13
2022-08-19T01:57:19.589Z,19.70
2022-08-19T01:59:46.157Z,22.08
2022-08-19T02:02:12.514Z,20.90
2022-08-19T02:04:39.182Z,20.10
2022-08-19T02:07:05.490Z,20.08
2022-08-19T02:09:31.829Z,23.13
2022-08-19T02:12:00.999Z,25.00
2022-08-19T02:14:28.665Z,20.45
2022-08-19T02:16:55.005Z,22.45
2022-08-19T02:19:21.413Z,22.75
2022-08-19T02:21:47.747Z,20.48
2022-08-19T02:24:14.055Z,20.65
2022-08-19T02:26:40.378Z,21.23
2022-08-19T02:29:08.230Z,26.52
2022-08-19T02:31:36.079Z,23.55
2022-08-19T02:34:02.379Z,23.58
2022-08-19T02:36:28.890Z,25.83
2022-08-19T02:38:56.586Z,22.92
2022-08-19T02:41:26.781Z,26.45
2022-08-19T02:44:29.303Z,23.80
2022-08-19T02:46:41.514Z,24.88
2022-08-19T02:49:08.406Z,27.48
2022-08-19T02:51:35.718Z,24.20
2022-08-19T02:54:02.154Z,29.65
2022-08-19T02:56:28.483Z,26.15
2022-08-19T02:58:54.907Z,28.70
2022-08-19T03:01:22.010Z,29.77
2022-08-19T03:03:49.763Z,30.90
2022-08-19T03:06:16.690Z,31.65
2022-08-19T03:08:43.946Z,33.47
2022-08-19T03:11:13.831Z,32.83
2022-08-19T03:13:40.151Z,34.05
2022-08-19T03:16:06.522Z,32.13
2022-08-19T03:18:32.819Z,29.27
2022-08-19T03:21:00.731Z,28.05
2022-08-19T03:23:27.247Z,31.33
2022-08-19T03:25:58.414Z,29.90
2022-08-19T03:28:32.335Z,29.83
2022-08-19T03:30:59.502Z,31.85
2022-08-19T03:33:28.626Z,31.75
2022-08-19T03:36:07.643Z,31.05
2022-08-19T03:38:34.583Z,32.15
2022-08-19T03:41:03.504Z,34.38
2022-08-19T03:43:29.822Z,32.08
2022-08-19T03:46:00.577Z,29.95
2022-08-19T03:48:26.884Z,33.45
2022-08-19T03:50:53.197Z,32.58
2022-08-19T03:53:20.809Z,34.33
2022-08-19T03:55:47.101Z,36.22
2022-08-19T03:58:13.414Z,37.63
2022-08-19T04:00:42.481Z,35.78
2022-08-19T04:03:08.792Z,35.28
2022-08-19T04:05:35.110Z,32.83
2022-08-19T04:08:01.413Z,36.70
2022-08-19T04:10:29.234Z,36.45
2022-08-19T04:12:55.582Z,31.33
2022-08-19T04:15:21.913Z,39.28
2022-08-19T04:17:48.237Z,35.42
2022-08-19T04:20:14.565Z,34.90
2022-08-19T04:22:40.933Z,38.30
2022-08-19T04:25:07.521Z,36.92
2022-08-19T04:27:35.166Z,38.17
2022-08-19T04:30:01.517Z,42.20
2022-08-19T04:32:27.829Z,42.72
2022-08-19T04:35:02.423Z,35.25
2022-08-19T04:37:40.485Z,64.95
2022-08-19T04:40:07.464Z,34.63
2022-08-19T04:42:35.178Z,36.78
2022-08-19T04:45:01.564Z,33.17
2022-08-19T04:47:48.038Z,35.13
2022-08-19T04:50:14.758Z,36.55
2022-08-19T04:52:41.151Z,34.97
2022-08-19T04:55:07.978Z,35.80
2022-08-19T04:57:35.626Z,37.00
2022-08-19T05:00:02.090Z,33.03
2022-08-19T05:02:28.402Z,43.17
2022-08-19T05:04:57.052Z,36.30
2022-08-19T05:07:23.374Z,35.95
2022-08-19T05:09:58.528Z,32.58
2022-08-19T05:12:29.210Z,34.88
2022-08-19T05:14:57.310Z,36.13
2022-08-19T05:17:27.720Z,32.25
2022-08-19T05:19:55.372Z,35.28
2022-08-19T05:22:21.668Z,34.92
2022-08-19T05:25:09.623Z,38.13
2022-08-19T05:27:34.450Z,35.17
2022-08-19T05:30:02.190Z,30.92
2022-08-19T05:32:28.582Z,37.10
2022-08-19T05:34:55.111Z,35.63
2022-08-19T05:37:21.405Z,33.25
2022-08-19T05:39:51.405Z,34.42
2022-08-19T05:42:18.047Z,35.20
2022-08-19T05:44:44.796Z,37.88
2022-08-19T05:47:13.222Z,39.13
2022-08-19T05:49:39.611Z,37.30
2022-08-19T05:52:07.079Z,35.80
2022-08-19T05:54:33.879Z,36.30
2022-08-19T05:57:01.618Z,32.33
2022-08-19T05:59:27.968Z,37.60
2022-08-19T06:01:54.487Z,36.70
2022-08-19T06:04:22.198Z,36.65
2022-08-19T06:09:16.056Z,34.17
2022-08-19T06:11:43.527Z,40.17
2022-08-19T06:14:16.533Z,29.88
2022-08-19T06:16:44.229Z,34.35
2022-08-19T06:19:11.731Z,33.80
2022-08-19T06:21:40.315Z,36.15
2022-08-19T06:24:07.551Z,36.47
2022-08-19T06:26:34.640Z,35.92
2022-08-19T06:29:01.014Z,36.45
2022-08-19T06:31:28.190Z,38.55
2022-08-19T06:33:54.569Z,37.63
2022-08-19T06:36:21.662Z,35.38
2022-08-19T06:38:52.945Z,32.05
2022-08-19T06:41:19.341Z,35.72
2022-08-19T06:43:45.681Z,38.85
2022-08-19T06:46:12.996Z,39.08
2022-08-19T06:48:45.383Z,38.05
2022-08-19T06:51:12.774Z,40.10
2022-08-19T06:53:39.159Z,41.80
2022-08-19T06:56:07.064Z,39.70
2022-08-19T06:58:33.361Z,41.72
2022-08-19T07:01:01.863Z,35.45
2022-08-19T07:03:30.175Z,39.22
2022-08-19T07:05:59.236Z,40.22
2022-08-19T07:08:27.601Z,40.45
2022-08-19T07:10:56.004Z,43.13
2022-08-19T07:13:23.761Z,46.00
2022-08-19T07:15:50.063Z,47.80
2022-08-19T07:18:17.108Z,43.53
2022-08-19T07:20:43.435Z,44.75
2022-08-19T07:23:09.768Z,41.97
2022-08-19T07:25:38.724Z,44.67
2022-08-19T07:28:07.583Z,45.45
2022-08-19T07:30:47.871Z,49.80
2022-08-19T07:33:14.184Z,46.15
2022-08-19T07:35:41.072Z,47.40
2022-08-19T07:38:07.456Z,46.70
2022-08-19T07:40:33.836Z,46.47
2022-08-19T07:43:00.165Z,44.55
2022-08-19T07:45:26.520Z,50.17
2022-08-19T07:47:54.208Z,51.72
2022-08-19T07:50:21.504Z,50.13
2022-08-19T07:52:49.123Z,47.85
2022-08-19T07:55:40.610Z,54.65
2022-08-19T07:58:03.257Z,46.20
2022-08-19T08:00:31.149Z,42.30
2022-08-19T08:02:58.841Z,45.28
2022-08-19T08:05:25.328Z,50.60
2022-08-19T08:07:51.644Z,42.55
2022-08-19T08:10:20.976Z,47.55
2022-08-19T08:13:01.858Z,44.10
2022-08-19T08:15:38.590Z,51.03
2022-08-19T08:18:09.188Z,41.58
2022-08-19T08:20:35.509Z,43.28
2022-08-19T08:23:02.211Z,44.45
2022-08-19T08:25:28.596Z,39.80
2022-08-19T08:27:58.988Z,45.28
2022-08-19T08:30:26.277Z,44.42
2022-08-19T08:32:57.596Z,48.03
2022-08-19T08:35:26.089Z,39.85
2022-08-19T08:37:54.082Z,43.20
2022-08-19T08:40:23.220Z,36.97
2022-08-19T08:42:52.850Z,35.90
2022-08-19T08:45:19.474Z,35.83
2022-08-19T08:47:48.000Z,38.72
2022-08-19T08:50:19.552Z,39.67
2022-08-19T08:52:49.333Z,37.40
2022-08-19T08:55:16.773Z,38.60
2022-08-19T08:57:51.689Z,36.33
2022-08-19T09:00:19.421Z,32.03
2022-08-19T09:02:50.980Z,33.03
2022-08-19T09:05:18.300Z,35.65
2022-08-19T09:07:54.881Z,34.50
2022-08-19T09:10:26.981Z,33.92
2022-08-19T09:12:57.510Z,31.02
2022-08-19T09:15:33.385Z,35.17
2022-08-19T09:18:00.586Z,27.70
2022-08-19T09:20:26.938Z,32.13
2022-08-19T09:22:54.665Z,27.48
2022-08-19T09:25:26.865Z,22.67
2022-08-19T09:28:03.001Z,21.60
2022-08-19T09:30:33.357Z,21.48
2022-08-19T09:32:59.721Z,18.50
2022-08-19T09:35:28.414Z,20.52
2022-08-19T09:37:57.411Z,16.25
2022-08-19T09:40:25.816Z,16.75
2022-08-19T09:42:52.593Z,16.60
2022-08-19T09:45:20.362Z,21.83
2022-08-19T09:47:47.325Z,15.60
2022-08-19T09:50:16.347Z,17.83
2022-08-19T09:52:43.085Z,16.08
2022-08-19T09:55:22.763Z,18.63
2022-08-19T09:57:50.517Z,16.65
2022-08-19T10:00:16.931Z,18.15
2022-08-19T10:02:44.610Z,17.05
2022-08-19T10:07:38.440Z,19.40
2022-08-19T10:10:05.755Z,19.95
2022-08-19T10:12:35.604Z,16.58
2022-08-19T10:15:01.999Z,21.83
2022-08-19T10:17:33.427Z,21.45
2022-08-19T10:19:59.943Z,21.10
2022-08-19T10:22:26.422Z,21.98
2022-08-19T10:24:52.963Z,17.58
2022-08-19T10:27:19.280Z,15.57
2022-08-19T10:29:47.132Z,19.27
2022-08-19T10:32:13.452Z,17.77
2022-08-19T10:34:48.221Z,20.55
2022-08-19T10:37:23.503Z,18.40
2022-08-19T10:39:50.489Z,17.13
2022-08-19T10:42:17.073Z,12.25
2022-08-19T10:44:43.388Z,14.70
2022-08-19T10:47:17.262Z,19.67
2022-08-19T10:52:19.029Z,15.05
2022-08-19T10:54:46.577Z,14.85
2022-08-19T10:57:12.957Z,16.58
2022-08-19T10:59:39.276Z,12.45
2022-08-19T11:02:07.873Z,16.15
2022-08-19T11:04:35.778Z,14.35
2022-08-19T11:07:02.300Z,16.27
2022-08-19T11:09:34.081Z,16.65
2022-08-19T11:12:02.945Z,14.95
2022-08-19T11:14:32.179Z,14.07
2022-08-19T11:17:00.528Z,15.90
2022-08-19T11:19:26.864Z,12.25
2022-08-19T11:21:54.564Z,11.40
2022-08-19T11:24:25.539Z,18.02
2022-08-19T11:26:53.032Z,12.03
2022-08-19T11:29:20.322Z,12.68
2022-08-19T11:31:48.977Z,11.63
2022-08-19T11:34:17.134Z,12.82
2022-08-19T11:36:45.048Z,12.85
2022-08-19T11:39:14.107Z,16.33
2022-08-19T11:41:40.815Z,11.23
2022-08-19T11:44:07.298Z,10.00
2022-08-19T11:46:34.144Z,11.98
2022-08-19T11:49:00.667Z,10.90
2022-08-19T11:51:28.426Z,11.13
2022-08-19T11:53:55.360Z,14.65
2022-08-19T11:56:23.667Z,12.13
2022-08-19T11:58:50.251Z,14.13
2022-08-19T12:01:17.503Z,12.25
2022-08-19T12:03:44.167Z,12.68
2022-08-19T12:06:11.543Z,11.20
2022-08-19T12:08:40.148Z,13.93
2022-08-19T12:11:06.455Z,10.98
2022-08-19T12:13:34.599Z,12.27
2022-08-19T12:16:01.170Z,14.60
2022-08-19T12:18:27.560Z,13.63
2022-08-19T12:20:54.255Z,13.27
2022-08-19T12:23:20.591Z,11.75
2022-08-19T12:25:48.851Z,11.98
2022-08-19T12:28:15.185Z,12.00
2022-08-19T12:30:42.860Z,12.32
2022-08-19T12:33:09.294Z,9.70
2022-08-19T12:35:35.621Z,12.55
2022-08-19T12:38:02.128Z,13.88
2022-08-19T12:40:28.516Z,13.52
2022-08-19T12:42:54.983Z,13.48
2022-08-19T12:45:21.555Z,9.30
2022-08-19T12:47:49.874Z,8.57
2022-08-19T12:50:20.140Z,8.80
2022-08-19T12:52:46.472Z,13.20
2022-08-19T12:55:12.829Z,11.25
2022-08-19T12:57:39.272Z,8.98
2022-08-19T13:00:06.636Z,12.52
2022-08-19T13:02:38.812Z,9.40
2022-08-19T13:05:09.860Z,10.63
2022-08-19T13:07:36.253Z,10.48
2022-08-19T13:10:03.078Z,35.65
2022-08-19T13:12:29.416Z,11.25
2022-08-19T13:14:56.256Z,11.75
2022-08-19T13:17:22.609Z,14.77
2022-08-19T13:19:48.961Z,15.05
2022-08-19T13:22:16.642Z,9.75
2022-08-19T13:24:47.036Z,10.80
2022-08-19T13:27:14.289Z,11.48
2022-08-19T13:29:40.713Z,8.60
2022-08-19T13:34:35.857Z,10.52
2022-08-19T13:37:03.177Z,11.55
2022-08-19T13:39:31.232Z,10.00
2022-08-19T13:41:57.569Z,11.40
2022-08-19T13:44:23.962Z,7.70
2022-08-19T13:46:50.469Z,9.73
2022-08-19T13:49:20.574Z,9.35
2022-08-19T13:51:46.950Z,9.77
2022-08-19T13:54:13.786Z,13.95
2022-08-19T13:56:45.389Z,9.63
2022-08-19T13:59:12.086Z,9.10
2022-08-19T14:01:38.529Z,8.32
2022-08-19T14:04:05.198Z,5.90
2022-08-19T14:06:31.563Z,7.90
2022-08-19T14:08:57.926Z,9.40
2022-08-19T14:11:24.299Z,8.98
2022-08-19T14:13:52.010Z,8.77
2022-08-19T14:16:18.412Z,9.35
2022-08-19T14:18:44.783Z,5.38
2022-08-19T14:21:15.122Z,6.40
2022-08-19T14:23:41.574Z,5.97
2022-08-19T14:26:08.695Z,6.15
2022-08-19T14:28:35.043Z,6.75
2022-08-19T14:31:02.732Z,5.30
2022-08-19T14:33:30.578Z,4.47
2022-08-19T14:35:59.764Z,9.10
2022-08-19T14:38:31.584Z,10.07
2022-08-19T14:41:06.488Z,5.97
2022-08-19T14:43:32.873Z,4.82
2022-08-19T14:45:59.333Z,5.05
2022-08-19T14:48:29.114Z,7.32
2022-08-19T14:50:57.391Z,5.13
2022-08-19T14:53:23.799Z,6.55
2022-08-19T14:55:50.168Z,7.32
2022-08-19T14:58:28.468Z,5.68
2022-08-19T15:00:56.340Z,4.45
2022-08-19T15:03:22.719Z,4.55
2022-08-19T15:05:52.084Z,5.70
2022-08-19T15:08:18.451Z,4.78
2022-08-19T15:10:44.815Z,16.33
2022-08-19T15:13:11.172Z,4.72
2022-08-19T15:15:37.552Z,3.72
2022-08-19T15:18:04.091Z,6.20
2022-08-19T15:20:30.499Z,5.38
2022-08-19T15:22:58.218Z,5.53
2022-08-19T15:25:24.637Z,4.72
2022-08-19T15:27:51.227Z,4.68
2022-08-19T15:30:19.800Z,4.03
2022-08-19T15:32:48.947Z,4.03
2022-08-19T15:35:16.103Z,6.25
2022-08-19T15:37:42.556Z,6.85
2022-08-19T15:40:11.147Z,6.05
2022-08-19T15:42:38.340Z,5.88
2022-08-19T15:45:05.140Z,6.47
2022-08-19T15:47:35.312Z,5.40
2022-08-19T15:50:04.844Z,4.47
2022-08-19T15:52:31.616Z,7.72
2022-08-19T15:54:59.129Z,3.35
2022-08-19T15:57:27.041Z,3.10
2022-08-19T15:59:53.372Z,4.53
2022-08-19T16:02:21.301Z,2.38
2022-08-19T16:04:48.008Z,4.75
2022-08-19T16:07:14.397Z,5.20
2022-08-19T16:09:48.736Z,4.30
2022-08-19T16:12:15.222Z,3.47
2022-08-19T16:14:42.900Z,3.03
2022-08-19T16:17:09.297Z,4.03
2022-08-19T16:19:36.052Z,3.78
2022-08-19T16:22:02.684Z,4.05
2022-08-19T16:24:29.141Z,3.33
2022-08-19T16:26:55.832Z,5.03
2022-08-19T16:29:34.712Z,2.65
2022-08-19T16:32:09.041Z,4.88
2022-08-19T16:34:35.973Z,5.65
2022-08-19T16:37:02.308Z,3.22
2022-08-19T16:39:28.854Z,3.45
2022-08-19T16:41:55.561Z,5.18
2022-08-19T16:44:22.049Z,9.05
2022-08-19T16:46:58.439Z,4.72
2022-08-19T16:49:54.473Z,4.53
2022-08-19T16:52:14.877Z,3.15
2022-08-19T16:54:41.761Z,6.63
2022-08-19T16:57:11.920Z,5.47
2022-08-19T16:59:39.391Z,3.35
2022-08-19T17:02:14.728Z,6.60
2022-08-19T17:04:42.457Z,14.05
2022-08-19T17:07:11.068Z,6.45
2022-08-19T17:09:38.040Z,5.93
2022-08-19T17:12:08.160Z,7.25
2022-08-19T17:14:34.576Z,4.07
2022-08-19T17:17:04.321Z,4.85
2022-08-19T17:19:36.691Z,4.00
2022-08-19T17:22:07.372Z,4.45
2022-08-19T17:24:38.361Z,2.75
2022-08-19T17:27:07.449Z,4.15
2022-08-19T17:29:34.064Z,3.50
2022-08-19T17:32:00.448Z,4.32
2022-08-19T17:34:26.808Z,4.10
2022-08-19T17:36:53.252Z,7.93
2022-08-19T17:39:21.004Z,4.07
2022-08-19T17:41:47.340Z,5.72
2022-08-19T17:44:13.688Z,11.10
2022-08-19T17:46:40.108Z,8.57
2022-08-19T17:49:06.580Z,7.07
2022-08-19T17:51:42.070Z,9.75
2022-08-19T17:54:09.192Z,5.20
2022-08-19T17:56:36.915Z,5.18
2022-08-19T17:59:03.605Z,4.65
2022-08-19T18:01:53.124Z,6.25
2022-08-19T18:04:18.975Z,4.50
2022-08-19T18:06:52.614Z,5.95
2022-08-19T18:09:20.991Z,3.95
2022-08-19T18:11:52.676Z,2.85
2022-08-19T18:14:19.681Z,5.70
2022-08-19T18:16:48.124Z,3.88
2022-08-19T18:19:14.501Z,4.30
2022-08-19T18:21:40.894Z,4.57
2022-08-19T18:24:07.475Z,3.97
2022-08-19T18:26:33.801Z,4.07
2022-08-19T18:29:01.549Z,3.90
2022-08-19T18:31:27.912Z,6.85
2022-08-19T18:33:54.252Z,6.45
2022-08-19T18:36:37.524Z,4.88
2022-08-19T18:39:07.946Z,5.00
2022-08-19T18:41:34.729Z,4.00
2022-08-19T18:44:02.924Z,4.75
2022-08-19T18:46:29.577Z,4.15
2022-08-19T18:49:01.429Z,2.58
2022-08-19T18:51:28.543Z,3.85
2022-08-19T18:53:54.965Z,4.50
2022-08-19T18:56:21.261Z,3.92
2022-08-19T18:58:47.605Z,2.90
2022-08-19T19:01:17.121Z,3.65
2022-08-19T19:03:46.320Z,3.55
2022-08-19T19:06:15.469Z,2.47
2022-08-19T19:08:42.641Z,5.60
2022-08-19T19:11:09.033Z,5.78
2022-08-19T19:13:36.106Z,8.60
2022-08-19T19:16:02.739Z,4.88
2022-08-19T19:18:30.829Z,2.53
2022-08-19T19:20:57.396Z,5.73
2022-08-19T19:23:24.404Z,5.20
2022-08-19T19:25:51.432Z,4.07
2022-08-19T19:28:18.482Z,3.13
2022-08-19T19:30:44.851Z,3.70
2022-08-19T19:33:11.177Z,2.45
2022-08-19T19:35:38.985Z,2.80
2022-08-19T19:38:11.201Z,3.55
2022-08-19T19:40:37.669Z,3.92
2022-08-19T19:43:04.017Z,3.20
2022-08-19T19:45:30.386Z,3.03
2022-08-19T19:47:56.798Z,4.93
2022-08-19T19:50:23.181Z,5.13
2022-08-19T19:52:51.082Z,4.68
2022-08-19T19:55:17.731Z,2.70
2022-08-19T19:57:44.258Z,2.13
2022-08-19T20:00:11.273Z,2.30
2022-08-19T20:02:37.669Z,3.47
2022-08-19T20:05:04.704Z,10.77
2022-08-19T20:07:31.077Z,2.70
2022-08-19T20:10:00.282Z,4.32
2022-08-19T20:12:26.844Z,3.40
2022-08-19T20:14:53.230Z,3.58
2022-08-19T20:17:19.591Z,3.58
2022-08-19T20:19:45.922Z,5.15
2022-08-19T20:22:12.269Z,5.22
2022-08-19T20:24:38.597Z,4.82
2022-08-19T20:27:06.454Z,4.70
2022-08-19T20:29:39.225Z,6.18
2022-08-19T20:32:08.950Z,3.17
2022-08-19T20:34:35.345Z,4.22
2022-08-19T20:37:01.717Z,3.88
2022-08-19T20:39:28.084Z,2.95
2022-08-19T20:41:54.389Z,6.25
2022-08-19T20:44:22.085Z,5.45
2022-08-19T20:46:54.789Z,5.93
2022-08-19T20:49:22.222Z,4.00
2022-08-19T20:51:48.547Z,6.45
2022-08-19T20:54:14.883Z,7.63
2022-08-19T20:56:41.221Z,4.78
2022-08-19T20:59:07.543Z,3.88
2022-08-19T21:01:35.287Z,4.00
2022-08-19T21:04:01.603Z,4.15
2022-08-19T21:06:27.935Z,4.20
2022-08-19T21:08:55.875Z,4.00
2022-08-19T21:11:22.208Z,4.03
2022-08-19T21:13:48.552Z,3.53
2022-08-19T21:16:14.935Z,3.97
2022-08-19T21:18:42.628Z,3.97
2022-08-19T21:21:10.134Z,3.00
2022-08-19T21:23:36.503Z,4.82
2022-08-19T21:26:02.897Z,5.97
2022-08-19T21:28:34.367Z,4.00
2022-08-19T21:31:02.648Z,3.90
2022-08-19T21:33:31.733Z,5.50
2022-08-19T21:36:00.620Z,4.15
2022-08-19T21:38:27.301Z,4.72
2022-08-19T21:40:53.636Z,4.72
2022-08-19T21:43:20.036Z,4.95
2022-08-19T21:45:46.484Z,3.75
2022-08-19T21:48:12.829Z,5.25
2022-08-19T21:50:39.153Z,6.53
2022-08-19T21:53:07.073Z,4.13
2022-08-19T21:55:37.961Z,9.43
2022-08-19T21:58:04.374Z,4.05
2022-08-19T22:00:32.217Z,6.55
2022-08-19T22:02:59.037Z,5.82
2022-08-19T22:05:25.642Z,6.03
2022-08-19T22:07:53.637Z,6.40
2022-08-19T22:10:21.413Z,6.05
2022-08-19T22:12:51.543Z,6.90
2022-08-19T22:15:19.509Z,7.57
2022-08-19T22:17:45.848Z,5.07
2022-08-19T22:20:13.514Z,6.82
2022-08-19T22:22:44.601Z,6.28
2022-08-19T22:25:12.548Z,5.85
2022-08-19T22:27:50.320Z,6.00
2022-08-19T22:30:17.756Z,4.82
2022-08-19T22:32:45.129Z,4.70
2022-08-19T22:35:11.577Z,6.07
2022-08-19T22:37:37.934Z,6.97
2022-08-19T22:40:05.357Z,6.15
2022-08-19T22:42:33.186Z,6.68
2022-08-19T22:45:01.031Z,5.25
2022-08-19T22:47:32.011Z,7.65
2022-08-19T22:50:01.839Z,5.43
2022-08-19T22:52:28.250Z,4.85
2022-08-19T22:54:55.366Z,5.10
2022-08-19T22:57:21.834Z,7.35
2022-08-19T22:59:48.485Z,5.82
2022-08-19T23:02:18.721Z,6.32
2022-08-19T23:04:45.035Z,6.85
2022-08-19T23:07:11.384Z,7.40
2022-08-19T23:09:37.847Z,6.15
2022-08-19T23:12:05.762Z,5.63
2022-08-19T23:14:32.107Z,5.88
2022-08-19T23:16:59.247Z,4.20
2022-08-19T23:19:27.110Z,8.50
2022-08-19T23:21:53.459Z,8.73
2022-08-19T23:24:19.800Z,7.28
2022-08-19T23:26:46.230Z,5.78
2022-08-19T23:29:12.554Z,8.02
2022-08-19T23:31:38.890Z,6.05
2022-08-19T23:34:05.395Z,8.95
2022-08-19T23:36:33.082Z,5.57
2022-08-19T23:38:59.526Z,6.05
2022-08-19T23:41:26.593Z,7.53
2022-08-19T23:43:54.965Z,6.05
2022-08-19T23:46:28.092Z,5.45
2022-08-19T23:48:54.958Z,5.50
2022-08-19T23:51:21.301Z,6.82
2022-08-19T23:53:48.992Z,7.68
2022-08-19T23:56:15.345Z,6.82
2022-08-19T23:58:41.703Z,8.65
